Time;durP1;ratioP1;P1;durP2;ratioP2;P2;SDS_P1;SDS_P2;PMS_P1;PMS_P2;Temp;Humidity;BMP_temperature;BMP_pressure;BME280_temperature;BME280_humidity;BME280_pressure;Samples;Min_cycle;Max_cycle;Signal;HPM_P1;HPM_P2
2022/09/29 00:00:15;;;;;;;6.70;5.30;;;;;;;5.31;89.01;97910.30;446757;1274;142026;-62
2022/09/29 00:10:21;;;;;;;7.30;5.20;;;;;;;5.09;88.56;97918.21;446649;1275;141848;-61
2022/09/29 00:20:26;;;;;;;6.10;5.50;;;;;;;4.92;88.89;97926.96;446271;1273;142545;-61
2022/09/29 00:30:32;;;;;;;8.90;6.60;;;;;;;4.72;88.65;97925.20;447088;1273;142908;-62
2022/09/29 00:40:38;;;;;;;6.20;5.50;;;;;;;4.52;89.06;97930.27;438223;1273;142260;-62
2022/09/29 00:50:48;;;;;;;8.40;6.90;;;;;;;4.72;89.84;97946.10;438878;1273;142047;-61
2022/09/29 01:00:54;;;;;;;8.90;7.60;;;;;;;4.69;89.46;97958.27;447045;1272;142597;-61
2022/09/29 01:11:03;;;;;;;8.70;7.90;;;;;;;4.56;89.55;97969.68;447033;1273;184650;-62
2022/09/29 01:21:17;;;;;;;9.00;8.10;;;;;;;4.61;90.12;97963.83;447013;1273;142433;-62
2022/09/29 01:31:31;;;;;;;9.50;8.60;;;;;;;4.62;89.81;97973.16;446986;1273;142577;-61
2022/09/29 01:41:42;;;;;;;10.00;9.00;;;;;;;4.46;89.76;97983.31;441089;1274;187240;-62
2022/09/29 01:51:54;;;;;;;8.80;7.90;;;;;;;4.46;90.13;97980.25;446793;1274;142873;-62
2022/09/29 02:02:06;;;;;;;8.70;7.80;;;;;;;4.46;90.51;97985.57;446822;1274;142993;-62
2022/09/29 02:12:18;;;;;;;8.90;8.00;;;;;;;4.43;90.09;97990.50;446821;1274;145510;-61
2022/09/29 02:22:23;;;;;;;9.40;8.40;;;;;;;4.39;90.31;98007.19;446859;1274;144079;-62
2022/09/29 02:32:33;;;;;;;9.30;7.80;;;;;;;4.33;90.11;98010.17;446044;1274;142482;-62
2022/09/29 02:42:49;;;;;;;9.60;8.60;;;;;;;4.29;90.63;98020.12;439197;1276;143869;-62
2022/09/29 02:53:02;;;;;;;9.70;8.70;;;;;;;4.28;90.38;98024.38;429296;1277;141746;-61
2022/09/29 03:03:08;;;;;;;10.20;9.10;;;;;;;4.24;90.72;98037.41;441517;1275;143567;-63
2022/09/29 03:13:14;;;;;;;8.40;7.50;;;;;;;4.25;90.96;98039.21;446585;1275;196899;-63
2022/09/29 03:23:20;;;;;;;8.70;7.80;;;;;;;4.29;90.70;98051.82;445824;1275;145000;-63
2022/09/29 03:33:25;;;;;;;8.50;7.50;;;;;;;4.37;91.16;98056.04;446628;1275;143620;-62
2022/09/29 03:43:31;;;;;;;10.00;8.80;;;;;;;4.63;91.23;98057.98;437453;1275;143329;-61
2022/09/29 03:53:37;;;;;;;9.40;7.70;;;;;;;4.80;90.91;98064.90;444942;1275;143372;-62
2022/09/29 04:03:43;;;;;;;9.80;8.60;;;;;;;4.89;90.41;98071.05;440861;1275;145722;-62
2022/09/29 04:13:48;;;;;;;11.70;10.30;;;;;;;4.99;90.65;98071.49;445557;1275;142306;-62
2022/09/29 04:23:54;;;;;;;11.70;10.20;;;;;;;5.07;90.47;98069.73;439590;1274;142296;-62
2022/09/29 04:34:00;;;;;;;14.60;10.30;;;;;;;5.11;90.33;98078.33;442525;1275;144419;-62
2022/09/29 04:44:06;;;;;;;12.90;10.10;;;;;;;5.16;90.15;98090.16;436712;1275;142992;-61
2022/09/29 04:54:12;;;;;;;11.60;10.10;;;;;;;5.21;89.95;98105.27;431205;1273;142057;-60
2022/09/29 05:04:18;;;;;;;14.40;10.90;;;;;;;5.28;90.13;98120.78;438656;1273;148329;-62
2022/09/29 05:14:23;;;;;;;11.90;10.40;;;;;;;5.32;89.96;98120.66;434934;1273;143208;-61
2022/09/29 05:24:29;;;;;;;12.00;10.20;;;;;;;5.40;89.76;98128.67;442715;1272;142879;-61
2022/09/29 05:34:35;;;;;;;12.00;10.80;;;;;;;5.41;89.51;98133.85;436678;1273;144458;-61
2022/09/29 05:44:40;;;;;;;12.10;10.30;;;;;;;5.53;89.63;98147.44;442276;1273;144750;-61
2022/09/29 05:54:49;;;;;;;11.10;9.40;;;;;;;5.71;89.31;98154.05;434395;1274;142103;-61
2022/09/29 06:04:55;;;;;;;10.00;8.60;;;;;;;5.83;88.80;98156.08;446885;1273;142235;-62
2022/09/29 06:15:01;;;;;;;11.00;9.80;;;;;;;5.96;88.77;98161.79;446081;1273;143911;-62
2022/09/29 06:25:08;;;;;;;12.10;10.20;;;;;;;6.29;88.43;98165.29;446862;1273;142914;-62
2022/09/29 06:45:37;;;;;;;13.10;11.00;;;;;;;6.84;87.20;98180.60;446871;1273;143668;-62
2022/09/29 06:55:43;;;;;;;12.10;10.90;;;;;;;7.12;86.76;98178.59;439277;1274;142787;-61
2022/09/29 07:05:48;;;;;;;15.30;13.10;;;;;;;7.58;86.20;98180.33;445612;1274;143042;-62
2022/09/29 07:16:15;;;;;;;14.90;12.00;;;;;;;7.94;85.27;98193.00;446611;1275;142849;-62
2022/09/29 07:26:21;;;;;;;13.30;12.10;;;;;;;8.17;84.14;98201.20;445875;1275;142676;-62
2022/09/29 07:36:27;;;;;;;15.40;13.80;;;;;;;8.50;83.46;98210.20;446633;1275;143010;-62
2022/09/29 07:46:32;;;;;;;17.80;14.30;;;;;;;8.92;82.48;98212.45;447023;1273;142626;-62
2022/09/29 07:56:38;;;;;;;13.70;12.20;;;;;;;9.27;81.94;98225.70;437300;1273;143039;-63
2022/09/29 08:06:45;;;;;;;12.60;11.30;;;;;;;9.72;80.79;98244.47;438160;1271;142663;-61
2022/09/29 08:16:50;;;;;;;11.10;10.00;;;;;;;9.81;79.97;98246.88;446645;1274;142521;-61
2022/09/29 08:26:57;;;;;;;12.80;10.90;;;;;;;9.73;79.33;98260.75;446254;1270;142923;-61
2022/09/29 08:37:05;;;;;;;11.30;10.10;;;;;;;10.17;79.11;98264.05;446839;1273;152329;-62
2022/09/29 08:47:19;;;;;;;10.10;9.30;;;;;;;13.79;77.11;98258.05;446230;1272;142901;-62
2022/09/29 08:57:26;;;;;;;10.70;9.80;;;;;;;17.31;70.91;98258.34;436325;1271;150710;-62
2022/09/29 09:07:41;;;;;;;10.30;8.30;;;;;;;18.16;66.56;98255.66;447044;1271;142356;-62
2022/09/29 09:18:16;;;;;;;9.10;8.40;;;;;;;16.84;63.48;98261.04;446321;1273;143419;-62
2022/09/29 09:28:26;;;;;;;8.90;8.10;;;;;;;15.05;63.32;98269.31;446892;1272;141857;-62
2022/09/29 09:38:45;;;;;;;6.20;5.70;;;;;;;14.58;64.01;98281.45;446299;1273;143100;-62
2022/09/29 09:49:01;;;;;;;6.20;5.70;;;;;;;14.27;63.49;98293.92;446690;1274;142978;-61
2022/09/29 09:59:16;;;;;;;4.90;4.60;;;;;;;14.55;63.38;98296.09;438401;1273;146181;-61
2022/09/29 10:09:23;;;;;;;4.70;4.30;;;;;;;14.58;62.69;98298.92;447089;1271;142150;-62
2022/09/29 10:19:55;;;;;;;5.10;3.20;;;;;;;14.20;62.32;98304.47;445138;1273;142817;-63
2022/09/29 10:30:02;;;;;;;2.70;2.50;;;;;;;13.79;61.39;98309.31;446333;1273;142408;-62
2022/09/29 10:40:20;;;;;;;7.20;3.40;;;;;;;13.36;61.96;98312.92;447051;1272;143060;-62
2022/09/29 10:50:28;;;;;;;2.10;1.90;;;;;;;13.26;61.87;98318.65;442590;1272;161859;-63
2022/09/29 11:00:41;;;;;;;4.60;3.60;;;;;;;13.16;61.09;98326.10;434378;1273;141429;-61
2022/09/29 11:10:47;;;;;;;10.70;4.60;;;;;;;13.14;61.16;98325.00;444860;1273;144425;-61
2022/09/29 11:21:03;;;;;;;2.50;1.60;;;;;;;13.00;61.35;98333.39;446029;1275;142068;-62
2022/09/29 11:31:23;;;;;;;3.10;1.80;;;;;;;13.25;61.61;98336.45;447139;1273;142440;-63
2022/09/29 11:41:54;;;;;;;4.10;1.60;;;;;;;13.53;60.66;98338.44;446337;1272;143136;-62
2022/09/29 11:52:19;;;;;;;3.00;1.40;;;;;;;13.98;60.12;98331.46;447089;1271;141268;-62
2022/09/29 12:03:04;;;;;;;2.30;1.20;;;;;;;14.15;59.13;98337.55;437146;1273;142718;-62
2022/09/29 12:13:20;;;;;;;1.50;1.40;;;;;;;14.34;58.64;98342.04;446793;1273;142022;-62
2022/09/29 12:23:29;;;;;;;2.30;1.60;;;;;;;14.24;58.34;98339.61;445940;1275;162105;-62
2022/09/29 12:33:40;;;;;;;3.00;2.80;;;;;;;14.17;58.08;98342.23;441717;1273;189093;-64
2022/09/29 12:43:54;;;;;;;1.60;1.50;;;;;;;14.20;57.48;98347.76;436659;1273;143498;-62
2022/09/29 12:54:15;;;;;;;1.50;1.40;;;;;;;14.14;57.05;98347.59;444753;1273;142872;-62
2022/09/29 13:05:03;;;;;;;10.90;2.60;;;;;;;14.23;56.23;98351.55;441768;1273;145993;-63
2022/09/29 13:15:17;;;;;;;;;;;;;;;14.31;55.73;98353.75;431367;1272;141907;-63
2022/09/29 13:25:32;;;;;;;2.30;1.20;;;;;;;13.97;55.85;98361.09;431700;1275;131749;-63
2022/09/29 13:35:42;;;;;;;4.60;1.50;;;;;;;13.77;55.88;98373.59;436388;1273;142641;-62
2022/09/29 13:45:48;;;;;;;2.10;1.30;;;;;;;13.64;55.84;98380.77;442595;1273;142951;-62
2022/09/29 13:55:55;;;;;;;2.60;1.60;;;;;;;13.33;56.71;98384.40;446740;1272;141130;-62
2022/09/29 14:06:18;;;;;;;7.40;1.90;;;;;;;13.16;57.04;98385.80;446300;1273;142435;-62
2022/09/29 14:16:56;;;;;;;4.00;1.80;;;;;;;12.77;57.60;98395.90;447090;1273;195727;-62
2022/09/29 14:27:26;;;;;;;1.50;1.30;;;;;;;12.34;58.62;98406.76;446314;1270;146119;-63
2022/09/29 14:37:32;;;;;;;3.50;1.60;;;;;;;12.03;59.94;98416.34;446566;1273;142006;-62
2022/09/29 14:58:24;;;;;;;1.80;1.10;;;;;;;11.42;62.18;98423.48;446879;1274;141360;-63
2022/09/29 15:08:33;;;;;;;2.60;1.70;;;;;;;11.20;63.42;98433.31;445748;1275;142517;-61
2022/09/29 15:19:08;;;;;;;9.10;3.00;;;;;;;11.07;64.71;98447.10;446997;1273;142725;-62
2022/09/29 15:29:17;;;;;;;6.20;3.20;;;;;;;11.07;66.09;98457.86;446239;1273;142386;-62
2022/09/29 15:39:47;;;;;;;7.80;4.90;;;;;;;10.98;66.21;98461.41;447034;1273;143345;-62
2022/09/29 15:49:54;;;;;;;5.20;3.60;;;;;;;10.61;64.91;98475.83;439868;1273;142551;-62
2022/09/29 16:00:00;;;;;;;10.80;3.40;;;;;;;10.26;66.13;98485.75;446267;1273;143705;-62
2022/09/29 16:10:14;;;;;;;12.60;6.20;;;;;;;9.94;67.51;98482.54;447055;1273;142716;-62
2022/09/29 16:20:26;;;;;;;4.30;3.60;;;;;;;9.57;68.23;98487.63;446050;1273;142656;-62
2022/09/29 16:30:34;;;;;;;32.10;10.70;;;;;;;9.13;69.75;98485.06;446432;1275;143036;-63
2022/09/29 16:40:41;;;;;;;11.40;6.70;;;;;;;8.66;70.74;98498.30;445615;1273;146233;-64
2022/09/29 16:50:50;;;;;;;18.40;8.40;;;;;;;8.21;71.87;98517.85;445674;1273;142520;-63
2022/09/29 17:00:56;;;;;;;20.50;10.60;;;;;;;7.76;73.20;98528.46;446997;1273;143032;-63
2022/09/29 17:11:02;;;;;;;23.60;12.80;;;;;;;7.38;73.87;98537.85;446886;1274;143403;-62
2022/09/29 17:21:10;;;;;;;23.30;12.20;;;;;;;7.03;74.78;98549.92;447067;1273;143181;-62
2022/09/29 17:31:16;;;;;;;45.00;18.30;;;;;;;6.68;75.13;98568.66;447072;1273;143575;-62
2022/09/29 17:41:22;;;;;;;63.20;35.90;;;;;;;6.42;76.04;98578.47;444693;1273;143987;-62
2022/09/29 17:51:28;;;;;;;36.50;18.90;;;;;;;6.24;76.90;98585.88;442169;1275;145206;-62
2022/09/29 18:01:34;;;;;;;32.00;22.40;;;;;;;6.00;77.12;98595.10;447071;1273;142763;-62
2022/09/29 18:11:40;;;;;;;39.00;20.60;;;;;;;6.01;78.38;98613.84;446257;1273;143255;-63
2022/09/29 18:21:46;;;;;;;45.30;25.80;;;;;;;5.82;78.18;98615.61;445047;1273;142866;-61
2022/09/29 18:31:52;;;;;;;38.10;23.30;;;;;;;5.57;78.34;98625.77;431443;1273;142796;-61
2022/09/29 18:41:57;;;;;;;37.90;23.80;;;;;;;5.47;79.31;98631.21;431161;1273;143157;-63
2022/09/29 18:52:03;;;;;;;44.40;28.40;;;;;;;5.26;79.44;98633.81;431063;1273;142640;-61
2022/09/29 19:02:13;;;;;;;35.40;24.90;;;;;;;5.11;79.86;98641.94;430168;1273;142535;-62
2022/09/29 19:12:25;;;;;;;42.80;27.60;;;;;;;4.97;80.59;98657.79;430605;1273;142456;-62
2022/09/29 19:22:34;;;;;;;34.20;24.30;;;;;;;4.85;80.94;98667.48;430156;1273;142995;-60
2022/09/29 19:32:43;;;;;;;26.50;21.70;;;;;;;4.95;82.71;98665.56;429512;1273;142447;-62
2022/09/29 19:42:50;;;;;;;27.40;22.60;;;;;;;5.10;83.71;98660.73;430272;1273;142695;-62
2022/09/29 19:52:56;;;;;;;25.60;21.10;;;;;;;5.14;83.78;98672.48;430424;1273;142249;-61
2022/09/29 20:03:02;;;;;;;36.80;27.00;;;;;;;5.04;84.42;98686.41;429391;1273;142653;-61
2022/09/29 20:13:09;;;;;;;37.50;25.60;;;;;;;4.82;84.38;98687.43;432201;1273;147818;-61
2022/09/29 20:23:14;;;;;;;29.90;23.60;;;;;;;4.84;85.12;98687.00;429935;1273;142916;-62
2022/09/29 20:33:20;;;;;;;30.80;23.80;;;;;;;4.84;85.18;98690.10;433822;1273;143183;-61
2022/09/29 20:43:26;;;;;;;34.30;23.20;;;;;;;4.66;85.28;98705.65;431631;1273;141853;-61
2022/09/29 20:53:34;;;;;;;28.30;22.80;;;;;;;4.40;85.35;98703.18;428906;1273;143158;-61
2022/09/29 21:03:40;;;;;;;30.30;23.50;;;;;;;4.57;86.70;98706.65;431022;1273;141702;-61
2022/09/29 21:13:49;;;;;;;37.50;25.10;;;;;;;4.78;87.18;98721.61;429260;1275;143677;-61
2022/09/29 21:23:55;;;;;;;27.90;21.50;;;;;;;4.61;86.48;98734.32;429826;1274;142546;-60
2022/09/29 21:34:03;;;;;;;34.80;25.70;;;;;;;4.28;86.29;98747.11;434101;1273;146838;-62
2022/09/29 21:44:10;;;;;;;;;;;;;;;4.05;86.07;98762.45;432297;1273;152965;-60
2022/09/29 21:54:17;;;;;;;27.20;20.40;;;;;;;3.95;86.31;98774.23;447042;1274;129149;-62
2022/09/29 22:04:23;;;;;;;31.50;23.40;;;;;;;4.11;87.62;98778.13;446902;1274;142684;-62
2022/09/29 22:14:29;;;;;;;28.40;20.60;;;;;;;4.23;87.58;98777.89;446138;1273;146359;-61
2022/09/29 22:24:35;;;;;;;27.50;20.80;;;;;;;3.99;86.96;98794.66;446630;1275;143992;-62
2022/09/29 22:34:42;;;;;;;28.30;21.40;;;;;;;3.68;86.72;98804.42;435401;1273;145777;-60
2022/09/29 22:44:47;;;;;;;29.70;22.60;;;;;;;3.46;86.89;98819.17;436306;1275;142241;-61
2022/09/29 22:54:53;;;;;;;29.80;21.50;;;;;;;3.45;87.34;98819.17;446605;1275;185038;-62
2022/09/29 23:04:59;;;;;;;27.00;22.20;;;;;;;3.57;88.29;98825.20;446561;1275;142807;-62
2022/09/29 23:15:05;;;;;;;32.30;21.70;;;;;;;3.87;88.94;98840.08;446327;1273;143792;-62
2022/09/29 23:25:11;;;;;;;31.60;21.50;;;;;;;3.86;88.98;98840.14;446670;1273;143154;-61
2022/09/29 23:35:17;;;;;;;32.40;23.30;;;;;;;3.87;89.00;98835.73;441825;1275;143598;-61
2022/09/29 23:45:23;;;;;;;28.70;21.40;;;;;;;3.61;88.39;98834.56;442318;1273;143531;-61
2022/09/29 23:55:28;;;;;;;30.70;22.10;;;;;;;3.65;89.46;98830.20;447001;1272;142762;-62
